Orlando, FL (32807)

3:41 AM EDT en Octubre 26, 2014 (GMT -0400)
Azalea Park | Change Station
CLOSE
Current Station
Estación meteorológica personal
Location: Orlando, Fl
Altura: 104 ft
Estaciones meteorológicas cercanas

Alt 104 ft 28.54 °N, 81.30 °W | Updated 5 seconds ago

Clear
Despejado
54.4 ° F
Sensación térmica 54.4 ° F
N
0.0
Viento Variable Viento desde NNO
Gusts 0.0 mph

Hoy
Alta -- | Baja -- ° F
--% Posibilidad de precipitaciones
Ayer
Alta -- | Baja -- ° F
Precip. -- pul
7:32 AM 6:44 PM
Creciente, 6% visible
Presión 29.98 pul
Visibilidad 10.0 Millas
Nubes Despejado
Punto de rocío 53 ° F
Humedad 96%
Precipitaciones 0.00 pul
Espesor de la nieve No disponible.
UV 0 de una escala de 12
Polen 5.80 de una escala de 12
Calidad del aire No disponible.
Flu Activity Local Activity
METAR KORL 260653Z AUTO 00000KT 10SM CLR 17/14 A2997 RMK AO2 SLP151 T01720144

More Conditions Fewer Conditions

Presión 29.98 pul
Visibilidad 10.0 Millas
Nubes Despejado
Punto de rocío 53 ° F
Humedad 96%
Precipitaciones 0.00 pul
Espesor de la nieve No disponible.
UV 0 de una escala de 12
Polen 5.80 de una escala de 12
Calidad del aire No disponible.
Flu Activity Local Activity
METAR KORL 260653Z AUTO 00000KT 10SM CLR 17/14 A2997 RMK AO2 SLP151 T01720144

More Conditions Fewer Conditions

10-Day Weather Forecast

Almanac

Astronomía

Oct. 26, 2014 Salida Puesta
Hora real 7:32 AM EDT 6:44 PM EDT
Crepúsculo civil 7:08 AM EDT 7:09 PM EDT
Crepúsculo náutico 6:41 AM EDT 7:36 PM EDT
Crepúsculo astronómico 6:13 AM EDT 8:04 PM EDT
Luna 10:01 AM EDT 9:04 PM EDT
Horas de luz 12h 00m
Horas de luz
11h 11m
Tomorrow will be 1m 32s shorter.
Creciente, 6% of the Moon is Illuminated
Hoy
Creciente
Oct 30
Cuarto creciente
Nov 6
Luna llena
Nov 14
Cuarto menguante
Nov 22
Nueva

Extremos de hoy

Máximos del estado Bajos del estado

Community

WunderPhotos

Upload Photos

1,765,115 ¡fotos cargadas!

Nearby

Calidad del aire

  Calidad del aire Índice AQ Contaminante
Ayer Buena
OZONE
Ayer Buena
PM2.5
Domingo Buena
OZONE

Grosos de nieve

Estación Profundido Altura
No tenemos constancia de nieve nueva.

Actividad de terremotos

Ciudad Distance Mag. Tiempo y dato
No hay informes recientes de la actividad sísmica.
Magnitud mínima muestra es 2,5.

Temperaturas de aguas costeras

Lugar Temperatura
Sin partes meteorológicos de las estaciones

Estaciones meteorológicas cercanas